createdAt,value
2017-09-21T00:00:05.932Z,1021
2017-09-21T00:05:11.656Z,1021
2017-09-21T00:10:16.377Z,1021
2017-09-21T00:15:21.432Z,1021
2017-09-21T00:20:26.155Z,1021
2017-09-21T00:25:31.546Z,1021
2017-09-21T00:30:36.934Z,1020.9
2017-09-21T00:35:41.317Z,1020.9
2017-09-21T00:40:46.704Z,1021
2017-09-21T00:45:51.088Z,1020.9
2017-09-21T00:50:56.483Z,1020.9
2017-09-21T00:56:02.542Z,1020.8
2017-09-21T01:01:08.268Z,1020.9
2017-09-21T01:06:12.655Z,1020.9
2017-09-21T01:11:17.378Z,1020.9
2017-09-21T01:16:22.767Z,1021
2017-09-21T01:21:28.158Z,1021
2017-09-21T01:26:33.552Z,1020.9
2017-09-21T01:31:38.601Z,1020.9
2017-09-21T01:36:43.659Z,1020.9
2017-09-21T01:41:48.716Z,1020.9
2017-09-21T01:46:53.770Z,1021
2017-09-21T01:51:59.492Z,1021
2017-09-21T01:57:04.211Z,1021
2017-09-21T02:02:08.929Z,1021
2017-09-21T02:07:14.317Z,1021.1
2017-09-21T02:12:19.040Z,1021.1
2017-09-21T02:17:23.760Z,1021.1
2017-09-21T02:22:29.484Z,1021.1
2017-09-21T02:27:34.876Z,1021.1
2017-09-21T02:32:39.596Z,1021.1
2017-09-21T02:37:45.323Z,1021.1
2017-09-21T02:42:50.378Z,1021
2017-09-21T02:47:56.439Z,1021.1
2017-09-21T02:53:01.493Z,1021.1
2017-09-21T02:58:07.218Z,1021
2017-09-21T03:03:12.611Z,1021
2017-09-21T03:08:17.664Z,1021
2017-09-21T03:13:22.721Z,1021.2
2017-09-21T03:18:28.113Z,1021.1
2017-09-21T03:23:33.510Z,1021.1
2017-09-21T03:28:38.901Z,1021
2017-09-21T03:33:44.291Z,1021
2017-09-21T03:38:49.682Z,1021
2017-09-21T03:43:55.073Z,1021
2017-09-21T03:49:00.461Z,1021
2017-09-21T03:54:05.178Z,1021
2017-09-21T03:59:09.564Z,1020.9
2017-09-21T04:04:15.291Z,1020.8
2017-09-21T04:09:19.677Z,1020.8
2017-09-21T04:14:25.068Z,1020.9
2017-09-21T04:19:29.789Z,1020.9
2017-09-21T04:24:34.847Z,1020.9
2017-09-21T04:29:39.568Z,1021
2017-09-21T04:34:44.691Z,1021
2017-09-21T04:39:49.416Z,1021.1
2017-09-21T04:44:54.475Z,1021.1
2017-09-21T04:50:00.400Z,1021.2
2017-09-21T04:55:06.001Z,1021.2
2017-09-21T05:00:12.085Z,1021.2
2017-09-21T05:05:17.829Z,1021.3
2017-09-21T05:10:22.887Z,1021.3
2017-09-21T05:15:27.969Z,1021.3
2017-09-21T05:20:34.034Z,1021.3
2017-09-21T05:25:38.753Z,1021.3
2017-09-21T05:30:43.811Z,1021.2
2017-09-21T05:35:48.535Z,1021.3
2017-09-21T05:40:54.260Z,1021.4
2017-09-21T05:45:59.317Z,1021.4
2017-09-21T05:51:05.043Z,1021.4
2017-09-21T05:56:10.771Z,1021.4
2017-09-21T06:01:16.167Z,1021.4
2017-09-21T06:06:21.555Z,1021.4
2017-09-21T06:11:26.945Z,1021.4
2017-09-21T06:16:31.330Z,1021.4
2017-09-21T06:21:37.055Z,1021.3
2017-09-21T06:26:41.778Z,1021.4
2017-09-21T06:31:47.506Z,1021.4
2017-09-21T06:36:52.226Z,1021.4
2017-09-21T06:41:57.960Z,1021.4
2017-09-21T06:47:03.020Z,1021.4
2017-09-21T06:52:07.743Z,1021.4
2017-09-21T06:57:13.496Z,1021.5
2017-09-21T07:02:18.195Z,1021.5
2017-09-21T07:07:23.254Z,1021.5
2017-09-21T07:12:27.976Z,1021.5
2017-09-21T07:17:33.035Z,1021.6
2017-09-21T07:22:37.759Z,1021.6
2017-09-21T07:27:43.489Z,1021.6
2017-09-21T07:32:48.551Z,1021.6
2017-09-21T07:37:54.613Z,1021.6
2017-09-21T07:43:00.008Z,1021.5
2017-09-21T07:48:05.065Z,1021.6
2017-09-21T07:53:10.122Z,1021.5
2017-09-21T07:58:14.175Z,1021.6
2017-09-21T08:03:20.235Z,1021.6
2017-09-21T08:08:25.628Z,1021.7
2017-09-21T08:13:30.353Z,1021.7
2017-09-21T08:18:35.071Z,1021.7
2017-09-21T08:23:40.801Z,1021.9
2017-09-21T08:28:45.857Z,1021.9
2017-09-21T08:33:50.579Z,1021.9
2017-09-21T08:38:55.303Z,1021.9
2017-09-21T08:44:00.032Z,1021.9
2017-09-21T08:49:05.423Z,1021.8
2017-09-21T08:54:11.147Z,1021.8
2017-09-21T08:59:16.540Z,1021.8
2017-09-21T09:04:21.261Z,1021.8
2017-09-21T09:09:25.651Z,1021.8
2017-09-21T09:14:30.714Z,1021.8
2017-09-21T09:19:35.798Z,1021.8
2017-09-21T09:24:41.162Z,1021.8
2017-09-21T09:29:46.553Z,1021.8
2017-09-21T09:34:51.944Z,1021.8
2017-09-21T09:39:56.669Z,1021.8
2017-09-21T09:45:02.066Z,1021.7
2017-09-21T09:50:06.792Z,1021.7
2017-09-21T09:55:12.519Z,1021.7
2017-09-21T10:00:17.916Z,1021.7
2017-09-21T10:05:23.317Z,1021.7
2017-09-21T10:10:28.375Z,1021.7
2017-09-21T10:15:33.108Z,1021.8
2017-09-21T10:20:38.171Z,1021.8
2017-09-21T10:25:42.898Z,1021.8
2017-09-21T10:30:47.961Z,1021.7
2017-09-21T10:35:53.024Z,1021.7
2017-09-21T10:40:58.755Z,1021.7
2017-09-21T10:46:03.818Z,1021.7
2017-09-21T10:51:08.547Z,1021.8
2017-09-21T10:56:14.616Z,1021.7
2017-09-21T11:01:19.674Z,1021.7
2017-09-21T11:06:24.737Z,1021.8
2017-09-21T11:11:30.001Z,1021.7
2017-09-21T11:16:34.727Z,1021.7
2017-09-21T11:21:39.786Z,1021.7
2017-09-21T11:26:45.182Z,1021.7
2017-09-21T11:31:50.579Z,1021.7
2017-09-21T11:36:54.975Z,1021.6
2017-09-21T11:42:00.372Z,1021.6
2017-09-21T11:47:05.433Z,1021.6
2017-09-21T11:52:10.830Z,1021.5
2017-09-21T11:57:15.894Z,1021.5
2017-09-21T12:02:21.625Z,1021.5
2017-09-21T12:07:26.722Z,1021.4
2017-09-21T12:12:32.126Z,1021.4
2017-09-21T12:17:37.523Z,1021.4
2017-09-21T12:22:42.583Z,1021.3
2017-09-21T12:27:47.645Z,1021.3
2017-09-21T12:32:53.377Z,1021.3
2017-09-21T12:37:58.117Z,1021.3
2017-09-21T12:43:04.196Z,1021.3
2017-09-21T12:48:09.263Z,1021.3
2017-09-21T12:53:14.326Z,1021.3
2017-09-21T12:58:19.731Z,1021.3
2017-09-21T13:03:24.804Z,1021.3
2017-09-21T13:08:29.869Z,1021.3
2017-09-21T13:13:34.948Z,1021.2
2017-09-21T13:18:39.675Z,1021.2
2017-09-21T13:23:45.073Z,1021.2
2017-09-21T13:28:50.808Z,1021.2
2017-09-21T13:33:55.871Z,1021.3
2017-09-21T13:39:00.599Z,1021.3
2017-09-21T13:44:05.657Z,1021.3
2017-09-21T13:49:11.053Z,1021.3
2017-09-21T13:54:15.786Z,1021.3
2017-09-21T13:59:21.183Z,1021.3
2017-09-21T14:04:26.579Z,1021.3
2017-09-21T14:09:31.308Z,1021.3
2017-09-21T14:14:36.701Z,1021.3
2017-09-21T14:19:41.099Z,1021.2
2017-09-21T14:24:45.826Z,1021.3
2017-09-21T14:29:51.223Z,1021.3
2017-09-21T14:34:56.625Z,1021.2
2017-09-21T14:40:01.350Z,1021.3
2017-09-21T14:45:06.076Z,1021.3
2017-09-21T14:50:10.803Z,1021.3
2017-09-21T14:55:16.200Z,1021.3
2017-09-21T15:00:20.926Z,1021.2
2017-09-21T15:05:25.987Z,1021.2
2017-09-21T15:10:31.382Z,1021.1
2017-09-21T15:15:36.442Z,1021.1
2017-09-21T15:20:41.173Z,1021.1
2017-09-21T15:25:45.564Z,1021.1
2017-09-21T15:30:50.958Z,1021.1
2017-09-21T15:35:56.355Z,1021.1
2017-09-21T15:41:01.416Z,1021.1
2017-09-21T15:46:06.815Z,1021.1
2017-09-21T15:51:11.543Z,1021.1
2017-09-21T15:56:16.940Z,1021.2
2017-09-21T16:01:21.352Z,1021.1
2017-09-21T16:06:26.780Z,1021.1
2017-09-21T16:11:32.330Z,1021.1
2017-09-21T16:16:37.727Z,1021.1
2017-09-21T16:21:42.465Z,1021.1
2017-09-21T16:26:47.860Z,1021.2
2017-09-21T16:31:53.258Z,1021.2
2017-09-21T16:36:58.335Z,1021.3
2017-09-21T16:42:03.072Z,1021.3
2017-09-21T16:47:08.465Z,1021.2
2017-09-21T16:52:13.528Z,1021.2
2017-09-21T16:57:18.596Z,1021.2
2017-09-21T17:02:23.660Z,1021.2
2017-09-21T17:07:29.058Z,1021.2
2017-09-21T17:12:34.157Z,1021.3
2017-09-21T17:17:38.221Z,1021.3
2017-09-21T17:22:42.943Z,1021.3
2017-09-21T17:27:48.383Z,1021.4
2017-09-21T17:32:53.507Z,1021.4
2017-09-21T17:37:58.296Z,1021.4
2017-09-21T17:43:04.028Z,1021.4
2017-09-21T17:48:09.659Z,1021.5
2017-09-21T17:53:14.518Z,1021.5
2017-09-21T17:58:19.594Z,1021.6
2017-09-21T18:03:24.683Z,1021.6
2017-09-21T18:08:29.755Z,1021.6
2017-09-21T18:13:34.491Z,1021.6
2017-09-21T18:18:39.561Z,1021.6
2017-09-21T18:23:44.625Z,1021.6
2017-09-21T18:28:49.696Z,1021.7
2017-09-21T18:33:54.773Z,1021.7
2017-09-21T18:38:59.849Z,1021.7
2017-09-21T18:44:05.579Z,1021.8
2017-09-21T18:49:09.650Z,1021.8
2017-09-21T18:54:14.717Z,1021.8
2017-09-21T18:59:19.838Z,1021.8
2017-09-21T19:04:24.905Z,1021.8
2017-09-21T19:09:30.645Z,1022
2017-09-21T19:14:35.388Z,1021.9
2017-09-21T19:19:41.149Z,1021.9
2017-09-21T19:24:46.593Z,1021.9
2017-09-21T19:29:51.714Z,1021.9
2017-09-21T19:34:56.452Z,1021.9
2017-09-21T19:40:01.857Z,1021.9
2017-09-21T19:45:06.920Z,1021.9
2017-09-21T19:50:11.986Z,1021.9
2017-09-21T19:55:17.388Z,1021.9
2017-09-21T20:00:22.461Z,1021.9
2017-09-21T20:05:27.530Z,1021.9
2017-09-21T20:10:33.260Z,1021.9
2017-09-21T20:15:38.390Z,1021.9
2017-09-21T20:20:43.467Z,1021.8
2017-09-21T20:25:48.863Z,1021.8
2017-09-21T20:30:53.950Z,1021.8
2017-09-21T20:35:59.066Z,1021.9
2017-09-21T20:41:03.790Z,1021.8
2017-09-21T20:46:09.524Z,1021.8
2017-09-21T20:51:14.585Z,1021.9
2017-09-21T20:56:19.312Z,1021.9
2017-09-21T21:01:24.044Z,1022
2017-09-21T21:06:28.771Z,1022
2017-09-21T21:11:33.839Z,1022
2017-09-21T21:16:39.575Z,1021.9
2017-09-21T21:21:44.985Z,1021.9
2017-09-21T21:26:49.386Z,1021.9
2017-09-21T21:31:55.455Z,1021.9
2017-09-21T21:37:01.522Z,1021.9
2017-09-21T21:42:07.248Z,1021.9
2017-09-21T21:47:12.850Z,1021.9
2017-09-21T21:52:17.908Z,1021.9
2017-09-21T21:57:22.298Z,1021.8
2017-09-21T22:02:27.363Z,1021.8
2017-09-21T22:07:32.426Z,1021.9
2017-09-21T22:12:38.151Z,1021.8
2017-09-21T22:17:43.546Z,1021.8
2017-09-21T22:22:48.598Z,1021.9
2017-09-21T22:27:53.992Z,1021.9
2017-09-21T22:32:58.716Z,1021.8
2017-09-21T22:38:04.107Z,1021.8
2017-09-21T22:43:08.497Z,1021.7
2017-09-21T22:48:13.556Z,1021.7
2017-09-21T22:53:19.284Z,1021.7
2017-09-21T22:58:24.344Z,1021.8
2017-09-21T23:03:29.735Z,1021.7
2017-09-21T23:08:34.794Z,1021.7
2017-09-21T23:13:40.518Z,1021.7
2017-09-21T23:18:45.576Z,1021.7
2017-09-21T23:23:50.965Z,1021.8
2017-09-21T23:28:55.020Z,1021.9
2017-09-21T23:34:00.414Z,1021.8
2017-09-21T23:39:06.475Z,1021.8
2017-09-21T23:44:12.206Z,1021.8
2017-09-21T23:49:17.602Z,1021.8
2017-09-21T23:54:22.662Z,1021.9
2017-09-21T23:59:28.387Z,1021.8
